sensor_id;sensor_type;location;lat;lon;timestamp;P1;durP1;ratioP1;P2;durP2;ratioP2
61911;SDS011;49973;52.084;5.412;2023-03-31T00:01:12;10.37;;;2.40;;
61911;SDS011;49973;52.084;5.412;2023-03-31T00:03:41;7.83;;;2.13;;
61911;SDS011;49973;52.084;5.412;2023-03-31T00:06:11;14.20;;;2.70;;
61911;SDS011;49973;52.084;5.412;2023-03-31T00:08:45;8.93;;;2.33;;
61911;SDS011;49973;52.084;5.412;2023-03-31T00:11:18;14.37;;;3.17;;
61911;SDS011;49973;52.084;5.412;2023-03-31T00:13:48;10.07;;;2.30;;
61911;SDS011;49973;52.084;5.412;2023-03-31T00:16:16;7.63;;;2.87;;
61911;SDS011;49973;52.084;5.412;2023-03-31T00:18:45;10.87;;;2.63;;
61911;SDS011;49973;52.084;5.412;2023-03-31T00:21:18;5.30;;;2.03;;
61911;SDS011;49973;52.084;5.412;2023-03-31T00:23:56;12.47;;;2.30;;
61911;SDS011;49973;52.084;5.412;2023-03-31T00:26:26;12.97;;;2.07;;
61911;SDS011;49973;52.084;5.412;2023-03-31T00:28:56;4.43;;;2.27;;
61911;SDS011;49973;52.084;5.412;2023-03-31T00:31:25;11.70;;;2.37;;
61911;SDS011;49973;52.084;5.412;2023-03-31T00:33:55;6.80;;;1.90;;
61911;SDS011;49973;52.084;5.412;2023-03-31T00:36:25;8.63;;;2.70;;
61911;SDS011;49973;52.084;5.412;2023-03-31T00:38:54;17.20;;;2.40;;
61911;SDS011;49973;52.084;5.412;2023-03-31T00:41:26;5.93;;;1.57;;
61911;SDS011;49973;52.084;5.412;2023-03-31T00:44:00;11.33;;;2.43;;
61911;SDS011;49973;52.084;5.412;2023-03-31T00:46:35;11.90;;;2.27;;
61911;SDS011;49973;52.084;5.412;2023-03-31T00:49:13;10.43;;;2.97;;
61911;SDS011;49973;52.084;5.412;2023-03-31T00:51:48;8.30;;;1.80;;
61911;SDS011;49973;52.084;5.412;2023-03-31T00:54:20;7.37;;;2.00;;
61911;SDS011;49973;52.084;5.412;2023-03-31T00:56:52;11.17;;;1.83;;
61911;SDS011;49973;52.084;5.412;2023-03-31T00:59:29;9.87;;;2.43;;
61911;SDS011;49973;52.084;5.412;2023-03-31T01:02:02;10.23;;;1.80;;
61911;SDS011;49973;52.084;5.412;2023-03-31T01:04:32;7.43;;;1.90;;
61911;SDS011;49973;52.084;5.412;2023-03-31T01:07:08;9.00;;;2.17;;
61911;SDS011;49973;52.084;5.412;2023-03-31T01:09:43;7.63;;;1.87;;
61911;SDS011;49973;52.084;5.412;2023-03-31T01:12:14;7.80;;;1.63;;
61911;SDS011;49973;52.084;5.412;2023-03-31T01:14:45;6.67;;;1.93;;
61911;SDS011;49973;52.084;5.412;2023-03-31T01:17:13;4.43;;;1.57;;
61911;SDS011;49973;52.084;5.412;2023-03-31T01:19:49;9.63;;;2.40;;
61911;SDS011;49973;52.084;5.412;2023-03-31T01:28:31;10.43;;;2.10;;
61911;SDS011;49973;52.084;5.412;2023-03-31T01:31:17;4.23;;;1.80;;
61911;SDS011;49973;52.084;5.412;2023-03-31T01:40:13;8.93;;;2.30;;
61911;SDS011;49973;52.084;5.412;2023-03-31T01:43:02;15.87;;;2.93;;
61911;SDS011;49973;52.084;5.412;2023-03-31T01:45:45;12.63;;;2.83;;
61911;SDS011;49973;52.084;5.412;2023-03-31T01:48:25;7.17;;;2.57;;
61911;SDS011;49973;52.084;5.412;2023-03-31T01:51:00;10.67;;;2.63;;
61911;SDS011;49973;52.084;5.412;2023-03-31T01:53:34;6.97;;;3.47;;
61911;SDS011;49973;52.084;5.412;2023-03-31T01:56:12;7.93;;;2.87;;
61911;SDS011;49973;52.084;5.412;2023-03-31T01:58:47;8.27;;;2.60;;
61911;SDS011;49973;52.084;5.412;2023-03-31T02:01:20;13.83;;;2.70;;
61911;SDS011;49973;52.084;5.412;2023-03-31T02:03:54;12.77;;;3.13;;
61911;SDS011;49973;52.084;5.412;2023-03-31T02:06:26;8.20;;;3.10;;
61911;SDS011;49973;52.084;5.412;2023-03-31T02:08:59;13.73;;;2.93;;
61911;SDS011;49973;52.084;5.412;2023-03-31T02:11:32;14.20;;;3.37;;
61911;SDS011;49973;52.084;5.412;2023-03-31T02:14:01;13.73;;;2.77;;
61911;SDS011;49973;52.084;5.412;2023-03-31T02:16:33;12.20;;;2.70;;
61911;SDS011;49973;52.084;5.412;2023-03-31T02:19:07;9.03;;;2.90;;
61911;SDS011;49973;52.084;5.412;2023-03-31T02:21:39;11.90;;;3.13;;
61911;SDS011;49973;52.084;5.412;2023-03-31T02:24:09;9.47;;;2.13;;
61911;SDS011;49973;52.084;5.412;2023-03-31T02:26:43;12.13;;;2.63;;
61911;SDS011;49973;52.084;5.412;2023-03-31T02:29:17;8.07;;;2.17;;
61911;SDS011;49973;52.084;5.412;2023-03-31T02:31:46;6.87;;;2.60;;
61911;SDS011;49973;52.084;5.412;2023-03-31T02:34:19;10.70;;;2.63;;
61911;SDS011;49973;52.084;5.412;2023-03-31T02:36:48;5.47;;;1.73;;
61911;SDS011;49973;52.084;5.412;2023-03-31T02:39:18;15.40;;;3.07;;
61911;SDS011;49973;52.084;5.412;2023-03-31T02:41:53;9.97;;;2.40;;
61911;SDS011;49973;52.084;5.412;2023-03-31T02:44:23;4.93;;;2.63;;
61911;SDS011;49973;52.084;5.412;2023-03-31T02:46:52;10.93;;;2.47;;
61911;SDS011;49973;52.084;5.412;2023-03-31T02:49:21;11.37;;;3.37;;
61911;SDS011;49973;52.084;5.412;2023-03-31T02:52:01;7.23;;;2.23;;
61911;SDS011;49973;52.084;5.412;2023-03-31T02:57:59;16.30;;;2.20;;
61911;SDS011;49973;52.084;5.412;2023-03-31T03:00:49;8.83;;;2.37;;
61911;SDS011;49973;52.084;5.412;2023-03-31T03:03:32;8.50;;;2.30;;
61911;SDS011;49973;52.084;5.412;2023-03-31T03:06:10;11.77;;;2.17;;
61911;SDS011;49973;52.084;5.412;2023-03-31T03:09:33;12.73;;;1.97;;
61911;SDS011;49973;52.084;5.412;2023-03-31T03:12:12;5.13;;;1.87;;
61911;SDS011;49973;52.084;5.412;2023-03-31T03:14:47;10.87;;;1.97;;
61911;SDS011;49973;52.084;5.412;2023-03-31T03:17:20;10.73;;;1.90;;
61911;SDS011;49973;52.084;5.412;2023-03-31T03:19:52;8.07;;;1.83;;
61911;SDS011;49973;52.084;5.412;2023-03-31T03:22:22;9.93;;;2.07;;
61911;SDS011;49973;52.084;5.412;2023-03-31T03:24:50;9.23;;;2.57;;
61911;SDS011;49973;52.084;5.412;2023-03-31T03:27:19;8.47;;;1.47;;
61911;SDS011;49973;52.084;5.412;2023-03-31T03:29:51;5.57;;;1.63;;
61911;SDS011;49973;52.084;5.412;2023-03-31T03:32:19;9.80;;;1.70;;
61911;SDS011;49973;52.084;5.412;2023-03-31T03:34:48;7.87;;;2.77;;
61911;SDS011;49973;52.084;5.412;2023-03-31T03:37:16;19.70;;;2.77;;
61911;SDS011;49973;52.084;5.412;2023-03-31T03:39:45;12.53;;;2.00;;
61911;SDS011;49973;52.084;5.412;2023-03-31T03:42:13;5.17;;;1.83;;
61911;SDS011;49973;52.084;5.412;2023-03-31T03:44:42;5.30;;;1.93;;
61911;SDS011;49973;52.084;5.412;2023-03-31T03:47:12;7.00;;;1.50;;
61911;SDS011;49973;52.084;5.412;2023-03-31T03:49:41;12.93;;;2.30;;
61911;SDS011;49973;52.084;5.412;2023-03-31T03:52:09;4.27;;;1.80;;
61911;SDS011;49973;52.084;5.412;2023-03-31T03:54:38;5.27;;;1.60;;
61911;SDS011;49973;52.084;5.412;2023-03-31T03:57:06;8.30;;;1.90;;
61911;SDS011;49973;52.084;5.412;2023-03-31T03:59:35;10.97;;;2.10;;
61911;SDS011;49973;52.084;5.412;2023-03-31T04:02:04;3.67;;;1.60;;
61911;SDS011;49973;52.084;5.412;2023-03-31T04:04:34;5.07;;;1.70;;
61911;SDS011;49973;52.084;5.412;2023-03-31T04:07:02;9.00;;;1.23;;
61911;SDS011;49973;52.084;5.412;2023-03-31T04:09:31;6.43;;;1.33;;
61911;SDS011;49973;52.084;5.412;2023-03-31T04:11:59;13.83;;;1.97;;
61911;SDS011;49973;52.084;5.412;2023-03-31T04:14:28;6.03;;;1.50;;
61911;SDS011;49973;52.084;5.412;2023-03-31T04:16:56;8.07;;;1.67;;
61911;SDS011;49973;52.084;5.412;2023-03-31T04:19:25;8.07;;;1.87;;
61911;SDS011;49973;52.084;5.412;2023-03-31T04:21:55;3.83;;;1.20;;
61911;SDS011;49973;52.084;5.412;2023-03-31T04:24:29;6.27;;;1.10;;
61911;SDS011;49973;52.084;5.412;2023-03-31T04:26:59;3.40;;;1.33;;
61911;SDS011;49973;52.084;5.412;2023-03-31T04:29:29;3.30;;;1.43;;
61911;SDS011;49973;52.084;5.412;2023-03-31T04:31:59;4.00;;;1.50;;
61911;SDS011;49973;52.084;5.412;2023-03-31T04:34:28;4.43;;;1.43;;
61911;SDS011;49973;52.084;5.412;2023-03-31T04:37:03;8.93;;;2.47;;
61911;SDS011;49973;52.084;5.412;2023-03-31T04:39:31;7.63;;;1.67;;
61911;SDS011;49973;52.084;5.412;2023-03-31T04:42:00;7.03;;;1.87;;
61911;SDS011;49973;52.084;5.412;2023-03-31T04:44:29;9.93;;;2.17;;
61911;SDS011;49973;52.084;5.412;2023-03-31T04:46:58;11.00;;;2.80;;
61911;SDS011;49973;52.084;5.412;2023-03-31T04:49:29;14.83;;;2.87;;
61911;SDS011;49973;52.084;5.412;2023-03-31T04:51:59;7.90;;;2.80;;
61911;SDS011;49973;52.084;5.412;2023-03-31T04:54:29;5.10;;;2.83;;
61911;SDS011;49973;52.084;5.412;2023-03-31T04:56:58;5.33;;;2.20;;
61911;SDS011;49973;52.084;5.412;2023-03-31T04:59:26;9.20;;;3.37;;
61911;SDS011;49973;52.084;5.412;2023-03-31T05:01:55;6.23;;;2.60;;
61911;SDS011;49973;52.084;5.412;2023-03-31T05:04:24;10.27;;;3.07;;
61911;SDS011;49973;52.084;5.412;2023-03-31T05:06:52;11.53;;;2.73;;
61911;SDS011;49973;52.084;5.412;2023-03-31T05:09:21;3.57;;;1.90;;
61911;SDS011;49973;52.084;5.412;2023-03-31T05:11:51;11.70;;;2.37;;
61911;SDS011;49973;52.084;5.412;2023-03-31T05:14:20;5.43;;;2.10;;
61911;SDS011;49973;52.084;5.412;2023-03-31T05:16:48;3.67;;;2.23;;
61911;SDS011;49973;52.084;5.412;2023-03-31T05:19:17;7.83;;;2.73;;
61911;SDS011;49973;52.084;5.412;2023-03-31T05:21:46;7.93;;;2.50;;
61911;SDS011;49973;52.084;5.412;2023-03-31T05:24:14;8.63;;;1.80;;
61911;SDS011;49973;52.084;5.412;2023-03-31T05:26:43;7.07;;;2.33;;
61911;SDS011;49973;52.084;5.412;2023-03-31T05:29:16;4.70;;;1.90;;
61911;SDS011;49973;52.084;5.412;2023-03-31T05:31:45;5.30;;;2.10;;
61911;SDS011;49973;52.084;5.412;2023-03-31T05:34:14;7.67;;;2.00;;
61911;SDS011;49973;52.084;5.412;2023-03-31T05:36:43;5.27;;;2.13;;
61911;SDS011;49973;52.084;5.412;2023-03-31T05:39:16;11.53;;;2.10;;
61911;SDS011;49973;52.084;5.412;2023-03-31T05:41:44;6.97;;;1.93;;
61911;SDS011;49973;52.084;5.412;2023-03-31T05:44:13;7.07;;;1.77;;
61911;SDS011;49973;52.084;5.412;2023-03-31T05:46:43;6.37;;;2.17;;
61911;SDS011;49973;52.084;5.412;2023-03-31T05:49:12;7.40;;;2.30;;
61911;SDS011;49973;52.084;5.412;2023-03-31T05:51:42;6.90;;;1.70;;
61911;SDS011;49973;52.084;5.412;2023-03-31T05:54:10;6.17;;;1.80;;
61911;SDS011;49973;52.084;5.412;2023-03-31T05:56:39;11.70;;;2.63;;
61911;SDS011;49973;52.084;5.412;2023-03-31T05:59:07;3.97;;;2.30;;
61911;SDS011;49973;52.084;5.412;2023-03-31T06:01:36;3.07;;;1.60;;
61911;SDS011;49973;52.084;5.412;2023-03-31T06:04:06;5.13;;;1.73;;
61911;SDS011;49973;52.084;5.412;2023-03-31T06:06:35;5.07;;;1.73;;
61911;SDS011;49973;52.084;5.412;2023-03-31T06:09:04;9.00;;;1.30;;
61911;SDS011;49973;52.084;5.412;2023-03-31T06:11:33;5.63;;;1.70;;
61911;SDS011;49973;52.084;5.412;2023-03-31T06:14:01;3.10;;;1.60;;
61911;SDS011;49973;52.084;5.412;2023-03-31T06:16:30;8.77;;;1.70;;
61911;SDS011;49973;52.084;5.412;2023-03-31T06:18:59;7.33;;;2.30;;
61911;SDS011;49973;52.084;5.412;2023-03-31T06:21:29;3.83;;;1.60;;
61911;SDS011;49973;52.084;5.412;2023-03-31T06:23:57;5.80;;;1.60;;
61911;SDS011;49973;52.084;5.412;2023-03-31T06:26:26;3.60;;;1.47;;
61911;SDS011;49973;52.084;5.412;2023-03-31T06:28:55;7.43;;;1.80;;
61911;SDS011;49973;52.084;5.412;2023-03-31T06:31:24;13.20;;;2.43;;
61911;SDS011;49973;52.084;5.412;2023-03-31T06:33:53;8.07;;;1.30;;
61911;SDS011;49973;52.084;5.412;2023-03-31T06:36:22;10.43;;;1.23;;
61911;SDS011;49973;52.084;5.412;2023-03-31T06:38:52;7.00;;;1.50;;
61911;SDS011;49973;52.084;5.412;2023-03-31T06:41:20;6.50;;;1.10;;
61911;SDS011;49973;52.084;5.412;2023-03-31T06:43:49;6.60;;;1.40;;
61911;SDS011;49973;52.084;5.412;2023-03-31T06:46:18;4.00;;;1.63;;
61911;SDS011;49973;52.084;5.412;2023-03-31T06:48:47;2.93;;;1.20;;
61911;SDS011;49973;52.084;5.412;2023-03-31T06:51:16;1.13;;;1.00;;
61911;SDS011;49973;52.084;5.412;2023-03-31T06:53:44;7.83;;;1.83;;
61911;SDS011;49973;52.084;5.412;2023-03-31T06:56:14;1.97;;;1.03;;
61911;SDS011;49973;52.084;5.412;2023-03-31T06:58:43;3.87;;;1.57;;
61911;SDS011;49973;52.084;5.412;2023-03-31T07:01:11;9.10;;;1.50;;
61911;SDS011;49973;52.084;5.412;2023-03-31T07:03:40;4.77;;;1.13;;
61911;SDS011;49973;52.084;5.412;2023-03-31T07:06:09;6.93;;;1.43;;
61911;SDS011;49973;52.084;5.412;2023-03-31T07:08:37;3.70;;;0.80;;
61911;SDS011;49973;52.084;5.412;2023-03-31T07:11:06;6.70;;;1.37;;
61911;SDS011;49973;52.084;5.412;2023-03-31T07:13:36;2.00;;;1.20;;
61911;SDS011;49973;52.084;5.412;2023-03-31T07:16:05;2.50;;;1.37;;
61911;SDS011;49973;52.084;5.412;2023-03-31T07:18:35;8.50;;;2.03;;
61911;SDS011;49973;52.084;5.412;2023-03-31T07:21:07;4.90;;;1.40;;
61911;SDS011;49973;52.084;5.412;2023-03-31T07:23:37;4.97;;;1.30;;
61911;SDS011;49973;52.084;5.412;2023-03-31T07:26:05;3.37;;;1.13;;
61911;SDS011;49973;52.084;5.412;2023-03-31T07:28:34;3.17;;;0.80;;
61911;SDS011;49973;52.084;5.412;2023-03-31T07:31:09;3.10;;;0.97;;
61911;SDS011;49973;52.084;5.412;2023-03-31T07:33:38;5.37;;;1.50;;
61911;SDS011;49973;52.084;5.412;2023-03-31T07:36:08;4.13;;;1.13;;
61911;SDS011;49973;52.084;5.412;2023-03-31T07:38:40;5.70;;;0.77;;
61911;SDS011;49973;52.084;5.412;2023-03-31T07:41:10;1.63;;;1.07;;
61911;SDS011;49973;52.084;5.412;2023-03-31T07:43:40;2.10;;;0.93;;
61911;SDS011;49973;52.084;5.412;2023-03-31T07:46:12;2.40;;;1.27;;
61911;SDS011;49973;52.084;5.412;2023-03-31T07:48:43;2.13;;;1.07;;
61911;SDS011;49973;52.084;5.412;2023-03-31T07:51:14;4.20;;;1.33;;
61911;SDS011;49973;52.084;5.412;2023-03-31T07:53:44;13.13;;;1.27;;
61911;SDS011;49973;52.084;5.412;2023-03-31T07:56:15;1.60;;;1.30;;
61911;SDS011;49973;52.084;5.412;2023-03-31T07:58:45;3.47;;;0.83;;
61911;SDS011;49973;52.084;5.412;2023-03-31T08:01:14;9.93;;;1.90;;
61911;SDS011;49973;52.084;5.412;2023-03-31T08:03:45;4.10;;;1.20;;
61911;SDS011;49973;52.084;5.412;2023-03-31T08:06:16;4.20;;;1.13;;
61911;SDS011;49973;52.084;5.412;2023-03-31T08:08:46;5.03;;;1.17;;
61911;SDS011;49973;52.084;5.412;2023-03-31T08:11:15;5.23;;;1.10;;
61911;SDS011;49973;52.084;5.412;2023-03-31T08:13:45;19.30;;;1.53;;
61911;SDS011;49973;52.084;5.412;2023-03-31T08:16:13;3.03;;;1.20;;
61911;SDS011;49973;52.084;5.412;2023-03-31T08:18:42;3.60;;;1.20;;
61911;SDS011;49973;52.084;5.412;2023-03-31T08:21:12;3.67;;;1.43;;
61911;SDS011;49973;52.084;5.412;2023-03-31T08:23:40;4.10;;;1.47;;
61911;SDS011;49973;52.084;5.412;2023-03-31T08:26:10;6.30;;;1.43;;
61911;SDS011;49973;52.084;5.412;2023-03-31T08:28:45;7.97;;;1.97;;
61911;SDS011;49973;52.084;5.412;2023-03-31T08:31:15;2.90;;;1.53;;
61911;SDS011;49973;52.084;5.412;2023-03-31T08:33:46;8.07;;;1.90;;
61911;SDS011;49973;52.084;5.412;2023-03-31T08:36:14;10.20;;;2.30;;
61911;SDS011;49973;52.084;5.412;2023-03-31T08:38:43;7.10;;;2.10;;
61911;SDS011;49973;52.084;5.412;2023-03-31T08:41:17;6.30;;;1.73;;
61911;SDS011;49973;52.084;5.412;2023-03-31T08:43:56;12.53;;;3.00;;
61911;SDS011;49973;52.084;5.412;2023-03-31T08:46:27;8.20;;;2.47;;
61911;SDS011;49973;52.084;5.412;2023-03-31T08:48:59;8.73;;;2.20;;
61911;SDS011;49973;52.084;5.412;2023-03-31T08:51:30;8.63;;;2.77;;
61911;SDS011;49973;52.084;5.412;2023-03-31T08:54:03;14.77;;;2.43;;
61911;SDS011;49973;52.084;5.412;2023-03-31T08:56:35;6.17;;;2.07;;
61911;SDS011;49973;52.084;5.412;2023-03-31T08:59:12;9.77;;;2.67;;
61911;SDS011;49973;52.084;5.412;2023-03-31T09:01:48;10.23;;;3.03;;
61911;SDS011;49973;52.084;5.412;2023-03-31T09:04:27;8.07;;;2.40;;
61911;SDS011;49973;52.084;5.412;2023-03-31T09:07:11;15.33;;;3.23;;
61911;SDS011;49973;52.084;5.412;2023-03-31T09:09:47;9.47;;;3.03;;
61911;SDS011;49973;52.084;5.412;2023-03-31T09:12:22;12.80;;;3.37;;
61911;SDS011;49973;52.084;5.412;2023-03-31T09:14:58;13.17;;;2.30;;
61911;SDS011;49973;52.084;5.412;2023-03-31T09:17:28;9.33;;;2.93;;
61911;SDS011;49973;52.084;5.412;2023-03-31T09:20:00;9.90;;;2.83;;
61911;SDS011;49973;52.084;5.412;2023-03-31T09:22:36;16.53;;;3.47;;
61911;SDS011;49973;52.084;5.412;2023-03-31T09:25:09;13.03;;;2.23;;
61911;SDS011;49973;52.084;5.412;2023-03-31T09:27:41;10.10;;;2.87;;
61911;SDS011;49973;52.084;5.412;2023-03-31T09:30:15;7.00;;;3.13;;
61911;SDS011;49973;52.084;5.412;2023-03-31T09:32:47;13.37;;;2.20;;
61911;SDS011;49973;52.084;5.412;2023-03-31T09:35:21;15.30;;;2.33;;
61911;SDS011;49973;52.084;5.412;2023-03-31T09:37:52;15.87;;;2.97;;
61911;SDS011;49973;52.084;5.412;2023-03-31T09:40:22;13.47;;;3.67;;
61911;SDS011;49973;52.084;5.412;2023-03-31T09:42:53;10.90;;;3.00;;
61911;SDS011;49973;52.084;5.412;2023-03-31T09:45:25;11.17;;;3.40;;
61911;SDS011;49973;52.084;5.412;2023-03-31T09:47:58;14.37;;;3.17;;
61911;SDS011;49973;52.084;5.412;2023-03-31T09:50:32;15.67;;;4.03;;
61911;SDS011;49973;52.084;5.412;2023-03-31T09:53:10;12.43;;;2.80;;
61911;SDS011;49973;52.084;5.412;2023-03-31T09:55:44;14.63;;;2.97;;
61911;SDS011;49973;52.084;5.412;2023-03-31T09:58:18;11.97;;;2.70;;
61911;SDS011;49973;52.084;5.412;2023-03-31T10:01:01;12.43;;;2.97;;
61911;SDS011;49973;52.084;5.412;2023-03-31T10:03:32;9.47;;;2.30;;
61911;SDS011;49973;52.084;5.412;2023-03-31T10:06:08;13.47;;;2.30;;
61911;SDS011;49973;52.084;5.412;2023-03-31T10:08:38;5.63;;;1.80;;
61911;SDS011;49973;52.084;5.412;2023-03-31T10:11:08;5.13;;;2.53;;
61911;SDS011;49973;52.084;5.412;2023-03-31T10:13:41;10.40;;;2.70;;
61911;SDS011;49973;52.084;5.412;2023-03-31T10:16:20;8.00;;;2.57;;
61911;SDS011;49973;52.084;5.412;2023-03-31T10:18:49;15.10;;;2.93;;
61911;SDS011;49973;52.084;5.412;2023-03-31T10:21:20;12.93;;;3.27;;
61911;SDS011;49973;52.084;5.412;2023-03-31T10:23:50;10.03;;;2.87;;
61911;SDS011;49973;52.084;5.412;2023-03-31T10:26:20;9.43;;;2.30;;
61911;SDS011;49973;52.084;5.412;2023-03-31T10:28:53;12.97;;;2.23;;
61911;SDS011;49973;52.084;5.412;2023-03-31T10:31:24;8.70;;;2.17;;
61911;SDS011;49973;52.084;5.412;2023-03-31T10:34:03;10.37;;;2.30;;
61911;SDS011;49973;52.084;5.412;2023-03-31T10:36:33;13.73;;;2.17;;
61911;SDS011;49973;52.084;5.412;2023-03-31T10:39:04;6.87;;;1.90;;
61911;SDS011;49973;52.084;5.412;2023-03-31T10:41:34;4.87;;;2.50;;
61911;SDS011;49973;52.084;5.412;2023-03-31T10:44:03;9.17;;;2.23;;
61911;SDS011;49973;52.084;5.412;2023-03-31T10:46:40;10.93;;;2.80;;
61911;SDS011;49973;52.084;5.412;2023-03-31T10:49:13;11.77;;;2.47;;
61911;SDS011;49973;52.084;5.412;2023-03-31T10:51:50;8.43;;;2.07;;
61911;SDS011;49973;52.084;5.412;2023-03-31T10:54:20;14.77;;;2.47;;
61911;SDS011;49973;52.084;5.412;2023-03-31T10:56:50;8.77;;;1.80;;
61911;SDS011;49973;52.084;5.412;2023-03-31T10:59:27;5.60;;;1.73;;
61911;SDS011;49973;52.084;5.412;2023-03-31T11:02:15;9.43;;;2.27;;
61911;SDS011;49973;52.084;5.412;2023-03-31T11:05:07;22.33;;;2.67;;
61911;SDS011;49973;52.084;5.412;2023-03-31T11:07:45;4.63;;;1.70;;
61911;SDS011;49973;52.084;5.412;2023-03-31T11:10:33;8.73;;;2.57;;
61911;SDS011;49973;52.084;5.412;2023-03-31T11:13:10;10.00;;;1.90;;
61911;SDS011;49973;52.084;5.412;2023-03-31T11:15:49;8.07;;;2.03;;
61911;SDS011;49973;52.084;5.412;2023-03-31T11:18:29;11.40;;;2.37;;
61911;SDS011;49973;52.084;5.412;2023-03-31T11:21:09;11.57;;;1.97;;
61911;SDS011;49973;52.084;5.412;2023-03-31T11:23:49;11.80;;;1.50;;
61911;SDS011;49973;52.084;5.412;2023-03-31T11:26:31;8.63;;;1.80;;
61911;SDS011;49973;52.084;5.412;2023-03-31T11:29:11;9.20;;;1.60;;
61911;SDS011;49973;52.084;5.412;2023-03-31T11:31:51;12.33;;;2.20;;
61911;SDS011;49973;52.084;5.412;2023-03-31T11:34:47;11.63;;;2.10;;
61911;SDS011;49973;52.084;5.412;2023-03-31T11:37:34;7.47;;;2.37;;
61911;SDS011;49973;52.084;5.412;2023-03-31T11:40:20;14.93;;;2.07;;
61911;SDS011;49973;52.084;5.412;2023-03-31T11:43:10;8.43;;;2.13;;
61911;SDS011;49973;52.084;5.412;2023-03-31T11:45:45;10.63;;;2.40;;
61911;SDS011;49973;52.084;5.412;2023-03-31T11:48:21;9.47;;;2.13;;
61911;SDS011;49973;52.084;5.412;2023-03-31T11:51:00;7.73;;;1.77;;
61911;SDS011;49973;52.084;5.412;2023-03-31T11:53:32;10.73;;;2.33;;
61911;SDS011;49973;52.084;5.412;2023-03-31T11:56:04;11.33;;;2.27;;
61911;SDS011;49973;52.084;5.412;2023-03-31T11:58:35;10.67;;;2.97;;
61911;SDS011;49973;52.084;5.412;2023-03-31T12:01:08;10.07;;;2.33;;
61911;SDS011;49973;52.084;5.412;2023-03-31T12:03:46;13.10;;;2.63;;
61911;SDS011;49973;52.084;5.412;2023-03-31T12:06:24;8.57;;;2.37;;
61911;SDS011;49973;52.084;5.412;2023-03-31T12:09:04;21.10;;;3.13;;
61911;SDS011;49973;52.084;5.412;2023-03-31T12:11:39;13.73;;;2.77;;
61911;SDS011;49973;52.084;5.412;2023-03-31T12:14:20;14.00;;;2.90;;
61911;SDS011;49973;52.084;5.412;2023-03-31T12:16:54;15.60;;;2.07;;
61911;SDS011;49973;52.084;5.412;2023-03-31T12:19:31;9.00;;;1.70;;
61911;SDS011;49973;52.084;5.412;2023-03-31T12:22:07;11.80;;;1.87;;
61911;SDS011;49973;52.084;5.412;2023-03-31T12:24:40;5.93;;;1.80;;
61911;SDS011;49973;52.084;5.412;2023-03-31T12:27:10;9.30;;;2.10;;
61911;SDS011;49973;52.084;5.412;2023-03-31T12:29:43;7.07;;;1.60;;
61911;SDS011;49973;52.084;5.412;2023-03-31T12:32:15;11.60;;;1.73;;
61911;SDS011;49973;52.084;5.412;2023-03-31T12:34:47;6.63;;;2.07;;
61911;SDS011;49973;52.084;5.412;2023-03-31T12:37:34;11.70;;;2.53;;
61911;SDS011;49973;52.084;5.412;2023-03-31T12:40:22;10.60;;;2.00;;
61911;SDS011;49973;52.084;5.412;2023-03-31T12:43:00;11.07;;;2.03;;
61911;SDS011;49973;52.084;5.412;2023-03-31T12:45:48;14.43;;;2.30;;
61911;SDS011;49973;52.084;5.412;2023-03-31T12:48:35;8.20;;;2.40;;
61911;SDS011;49973;52.084;5.412;2023-03-31T12:51:24;8.90;;;2.27;;
61911;SDS011;49973;52.084;5.412;2023-03-31T12:54:12;11.37;;;1.83;;
61911;SDS011;49973;52.084;5.412;2023-03-31T12:57:04;7.43;;;2.03;;
61911;SDS011;49973;52.084;5.412;2023-03-31T12:59:41;8.83;;;1.90;;
61911;SDS011;49973;52.084;5.412;2023-03-31T13:02:16;10.17;;;2.60;;
61911;SDS011;49973;52.084;5.412;2023-03-31T13:04:50;8.77;;;1.80;;
61911;SDS011;49973;52.084;5.412;2023-03-31T13:10:24;11.20;;;2.77;;
61911;SDS011;49973;52.084;5.412;2023-03-31T13:12:59;13.03;;;2.23;;
61911;SDS011;49973;52.084;5.412;2023-03-31T13:15:30;10.83;;;2.23;;
61911;SDS011;49973;52.084;5.412;2023-03-31T13:18:00;9.63;;;2.00;;
61911;SDS011;49973;52.084;5.412;2023-03-31T13:20:34;8.70;;;2.13;;
61911;SDS011;49973;52.084;5.412;2023-03-31T13:23:04;7.50;;;2.10;;
61911;SDS011;49973;52.084;5.412;2023-03-31T13:25:45;7.37;;;2.50;;
61911;SDS011;49973;52.084;5.412;2023-03-31T13:28:17;7.73;;;1.57;;
61911;SDS011;49973;52.084;5.412;2023-03-31T13:30:58;11.43;;;1.77;;
61911;SDS011;49973;52.084;5.412;2023-03-31T13:33:33;10.17;;;1.47;;
61911;SDS011;49973;52.084;5.412;2023-03-31T13:39:29;4.47;;;2.00;;
61911;SDS011;49973;52.084;5.412;2023-03-31T13:42:30;12.43;;;2.80;;
61911;SDS011;49973;52.084;5.412;2023-03-31T13:45:20;11.10;;;2.10;;
61911;SDS011;49973;52.084;5.412;2023-03-31T13:48:03;7.70;;;2.03;;
61911;SDS011;49973;52.084;5.412;2023-03-31T13:50:53;9.67;;;2.43;;
61911;SDS011;49973;52.084;5.412;2023-03-31T13:53:37;7.80;;;2.10;;
61911;SDS011;49973;52.084;5.412;2023-03-31T13:56:22;6.43;;;2.30;;
61911;SDS011;49973;52.084;5.412;2023-03-31T13:59:11;10.43;;;1.97;;
61911;SDS011;49973;52.084;5.412;2023-03-31T14:01:56;7.43;;;1.57;;
61911;SDS011;49973;52.084;5.412;2023-03-31T14:07:36;14.03;;;1.93;;
61911;SDS011;49973;52.084;5.412;2023-03-31T14:10:20;14.77;;;2.13;;
61911;SDS011;49973;52.084;5.412;2023-03-31T14:12:50;3.30;;;1.70;;
61911;SDS011;49973;52.084;5.412;2023-03-31T14:15:20;7.30;;;1.87;;
61911;SDS011;49973;52.084;5.412;2023-03-31T14:17:49;5.63;;;2.10;;
61911;SDS011;49973;52.084;5.412;2023-03-31T14:20:21;10.23;;;2.23;;
61911;SDS011;49973;52.084;5.412;2023-03-31T14:22:59;7.93;;;1.97;;
61911;SDS011;49973;52.084;5.412;2023-03-31T14:25:43;9.80;;;1.60;;
61911;SDS011;49973;52.084;5.412;2023-03-31T14:28:21;6.33;;;1.67;;
61911;SDS011;49973;52.084;5.412;2023-03-31T14:31:09;4.77;;;2.00;;
61911;SDS011;49973;52.084;5.412;2023-03-31T14:33:49;6.77;;;2.40;;
61911;SDS011;49973;52.084;5.412;2023-03-31T14:36:34;5.77;;;2.00;;
61911;SDS011;49973;52.084;5.412;2023-03-31T14:39:08;9.13;;;3.03;;
61911;SDS011;49973;52.084;5.412;2023-03-31T14:41:38;8.40;;;2.00;;
61911;SDS011;49973;52.084;5.412;2023-03-31T14:44:11;8.70;;;2.60;;
61911;SDS011;49973;52.084;5.412;2023-03-31T14:46:43;4.70;;;1.93;;
61911;SDS011;49973;52.084;5.412;2023-03-31T14:49:18;2.87;;;1.40;;
61911;SDS011;49973;52.084;5.412;2023-03-31T14:51:50;1.77;;;1.40;;
61911;SDS011;49973;52.084;5.412;2023-03-31T14:54:20;9.27;;;2.00;;
61911;SDS011;49973;52.084;5.412;2023-03-31T14:56:49;11.53;;;2.37;;
61911;SDS011;49973;52.084;5.412;2023-03-31T14:59:21;3.40;;;1.37;;
61911;SDS011;49973;52.084;5.412;2023-03-31T15:01:54;8.43;;;2.03;;
61911;SDS011;49973;52.084;5.412;2023-03-31T15:04:25;6.93;;;1.80;;
61911;SDS011;49973;52.084;5.412;2023-03-31T15:07:08;3.67;;;1.80;;
61911;SDS011;49973;52.084;5.412;2023-03-31T15:09:37;3.73;;;1.50;;
61911;SDS011;49973;52.084;5.412;2023-03-31T15:12:07;2.13;;;1.30;;
61911;SDS011;49973;52.084;5.412;2023-03-31T15:14:42;4.00;;;1.20;;
61911;SDS011;49973;52.084;5.412;2023-03-31T15:17:21;2.60;;;0.80;;
61911;SDS011;49973;52.084;5.412;2023-03-31T15:19:52;2.53;;;1.07;;
61911;SDS011;49973;52.084;5.412;2023-03-31T15:22:22;4.90;;;1.60;;
61911;SDS011;49973;52.084;5.412;2023-03-31T15:24:53;7.97;;;2.63;;
61911;SDS011;49973;52.084;5.412;2023-03-31T15:27:26;5.03;;;2.57;;
61911;SDS011;49973;52.084;5.412;2023-03-31T15:30:03;3.07;;;1.70;;
61911;SDS011;49973;52.084;5.412;2023-03-31T15:32:36;3.17;;;1.80;;
61911;SDS011;49973;52.084;5.412;2023-03-31T15:35:10;4.87;;;2.00;;
61911;SDS011;49973;52.084;5.412;2023-03-31T15:38:08;7.03;;;2.43;;
61911;SDS011;49973;52.084;5.412;2023-03-31T15:40:42;3.10;;;1.40;;
61911;SDS011;49973;52.084;5.412;2023-03-31T15:43:13;2.63;;;1.53;;
61911;SDS011;49973;52.084;5.412;2023-03-31T15:45:52;5.67;;;2.50;;